Time;durP1;ratioP1;P1;durP2;ratioP2;P2;SDS_P1;SDS_P2;PMS_P1;PMS_P2;Temp;Humidity;BMP_temperature;BMP_pressure;BME280_temperature;BME280_humidity;BME280_pressure;Samples;Min_cycle;Max_cycle;Signal;HPM_P1;HPM_P2
2023/03/04 00:01:16;;;;;;;10.15;3.40;;;;;;;4.60;91.77;102551.84;5088931;28;20030;-64
2023/03/04 00:03:42;;;;;;;7.30;2.78;;;;;;;4.60;92.05;102565.06;5088833;28;20039;-64
2023/03/04 00:06:07;;;;;;;11.52;3.80;;;;;;;4.59;91.79;102566.03;5088683;28;20383;-64
2023/03/04 00:08:33;;;;;;;13.00;3.00;;;;;;;4.59;91.79;102566.03;5088651;28;20130;-64
2023/03/04 00:10:59;;;;;;;11.48;3.25;;;;;;;4.58;92.04;102559.91;5088735;28;20024;-63
2023/03/04 00:13:24;;;;;;;11.00;3.65;;;;;;;4.55;92.60;102557.47;5087313;28;20080;-64
2023/03/04 00:15:49;;;;;;;14.75;3.40;;;;;;;4.54;92.54;102562.88;5088899;28;21001;-64
2023/03/04 00:18:15;;;;;;;11.95;4.00;;;;;;;4.54;92.82;102557.59;5088712;28;20039;-64
2023/03/04 00:20:41;;;;;;;14.75;4.50;;;;;;;4.55;92.55;102557.47;5087450;28;20028;-64
2023/03/04 00:23:06;;;;;;;12.30;3.08;;;;;;;4.56;92.23;102555.69;5088511;28;20499;-64
2023/03/04 00:25:32;;;;;;;11.00;3.33;;;;;;;4.56;92.29;102561.81;5088389;28;20110;-64
2023/03/04 00:27:58;;;;;;;8.52;2.83;;;;;;;4.58;92.42;102556.41;5090595;28;20391;-64
2023/03/04 00:30:23;;;;;;;9.95;3.05;;;;;;;4.58;92.34;102559.91;5092419;28;20062;-63
2023/03/04 00:32:49;;;;;;;6.95;3.00;;;;;;;4.52;92.27;102541.00;5092706;28;20028;-64
2023/03/04 00:35:14;;;;;;;14.73;4.47;;;;;;;4.59;92.48;102552.81;5092319;28;20467;-64
2023/03/04 00:37:39;;;;;;;10.57;2.80;;;;;;;4.58;92.89;102557.25;5092238;28;20046;-64
2023/03/04 00:40:06;;;;;;;15.63;3.50;;;;;;;4.59;93.16;102548.38;5092284;28;20051;-63
2023/03/04 00:42:31;;;;;;;11.35;2.47;;;;;;;4.59;93.39;102547.53;5092295;28;20031;-63
2023/03/04 00:44:56;;;;;;;14.32;3.35;;;;;;;4.56;93.10;102545.97;5091864;28;20337;-64
2023/03/04 00:47:22;;;;;;;13.05;2.58;;;;;;;4.59;93.17;102558.09;5092219;28;20032;-64
2023/03/04 00:49:47;;;;;;;6.10;2.40;;;;;;;4.61;91.75;102548.22;5091928;28;20028;-64
2023/03/04 00:52:12;;;;;;;11.18;2.55;;;;;;;4.63;91.11;102551.59;5091975;28;20032;-64
2023/03/04 00:54:38;;;;;;;7.72;3.10;;;;;;;4.63;90.97;102551.59;5090681;28;20028;-64
2023/03/04 00:57:03;;;;;;;16.02;3.50;;;;;;;4.64;91.42;102553.31;5091913;28;20036;-64
2023/03/04 00:59:28;;;;;;;13.20;3.03;;;;;;;4.65;91.55;102562.06;5091950;28;20103;-64
2023/03/04 01:01:54;;;;;;;13.07;3.17;;;;;;;4.66;91.47;102555.81;5091724;28;20032;-64
2023/03/04 01:04:19;;;;;;;7.78;2.03;;;;;;;4.65;91.71;102555.00;5092048;28;20165;-64
2023/03/04 01:06:44;;;;;;;15.38;2.63;;;;;;;4.65;91.74;102551.50;5091508;28;20125;-63
2023/03/04 01:09:10;;;;;;;12.20;4.10;;;;;;;4.65;92.08;102554.16;5091689;28;20031;-64
2023/03/04 01:11:35;;;;;;;12.50;3.05;;;;;;;4.64;91.04;102561.25;5091554;28;20036;-64
2023/03/04 01:14:00;;;;;;;7.75;2.40;;;;;;;4.63;91.36;102556.06;5091671;28;20036;-64
2023/03/04 01:16:26;;;;;;;11.40;2.90;;;;;;;4.64;91.84;102557.72;5091449;28;20597;-64
2023/03/04 01:18:51;;;;;;;9.27;2.35;;;;;;;4.54;91.58;102542.59;5091626;28;20046;-64
2023/03/04 01:21:17;;;;;;;8.35;3.13;;;;;;;4.56;91.74;102548.59;5089921;28;20035;-63
2023/03/04 01:23:43;;;;;;;16.98;2.78;;;;;;;4.63;92.02;102556.91;5071936;28;20073;-64
2023/03/04 01:26:08;;;;;;;10.13;2.13;;;;;;;4.63;91.70;102554.25;5071851;28;20028;-64
2023/03/04 01:28:34;;;;;;;10.15;2.70;;;;;;;4.61;92.29;102551.75;5071920;28;20074;-63
2023/03/04 01:31:01;;;;;;;9.73;3.38;;;;;;;4.59;92.13;102547.53;5071787;28;20032;-63
2023/03/04 01:33:26;;;;;;;13.13;3.70;;;;;;;4.60;92.28;102549.22;5071833;28;20017;-63
2023/03/04 01:35:52;;;;;;;5.45;2.33;;;;;;;4.59;92.40;102543.09;5071820;28;20086;-63
2023/03/04 01:38:17;;;;;;;12.75;2.10;;;;;;;4.57;92.30;102544.16;5071438;28;20071;-63
2023/03/04 01:40:42;;;;;;;11.43;2.20;;;;;;;4.57;92.36;102538.88;5071761;28;20076;-64
2023/03/04 01:43:15;;;;;;;10.55;2.45;;;;;;;4.57;92.68;102542.34;5071828;28;20047;-64
2023/03/04 01:45:40;;;;;;;15.18;2.63;;;;;;;4.56;92.60;102532.75;5090395;28;20052;-64
2023/03/04 01:48:08;;;;;;;9.50;3.47;;;;;;;4.59;92.49;102537.81;5089689;28;20499;-64
2023/03/04 01:50:34;;;;;;;6.63;2.10;;;;;;;4.60;92.11;102538.63;5089511;28;20499;-64
2023/03/04 01:53:02;;;;;;;10.10;4.40;;;;;;;4.52;92.85;102517.22;5090871;28;20468;-64
2023/03/04 01:55:28;;;;;;;11.43;2.72;;;;;;;4.59;92.70;102521.94;5090973;28;20024;-64
2023/03/04 01:57:56;;;;;;;6.57;2.45;;;;;;;4.60;92.40;102525.41;5090740;28;20024;-64
2023/03/04 02:00:32;;;;;;;8.55;2.15;;;;;;;4.58;92.45;102515.00;5090838;28;20430;-63
2023/03/04 02:03:06;;;;;;;7.65;1.52;;;;;;;4.58;92.70;102516.75;5090550;28;20028;-64
2023/03/04 02:05:33;;;;;;;8.00;2.33;;;;;;;4.59;92.20;102514.03;5090651;28;20055;-64
2023/03/04 02:08:00;;;;;;;12.27;3.15;;;;;;;4.58;92.55;102512.34;5090878;28;20618;-63
2023/03/04 02:10:26;;;;;;;10.93;1.73;;;;;;;4.58;92.94;102515.00;5090506;28;20024;-64
2023/03/04 02:12:51;;;;;;;7.55;2.58;;;;;;;4.57;92.92;102512.44;5090570;28;20034;-64
2023/03/04 02:15:17;;;;;;;9.50;2.22;;;;;;;4.58;93.06;102500.91;5090508;28;20025;-64
2023/03/04 02:17:42;;;;;;;11.30;2.38;;;;;;;4.57;93.35;102507.16;5090430;28;20031;-64
2023/03/04 02:20:37;;;;;;;4.30;2.30;;;;;;;4.62;93.08;102499.72;5090269;28;20030;-64
2023/03/04 02:23:15;;;;;;;10.00;2.92;;;;;;;4.55;92.76;102499.34;5088079;28;20570;-64
2023/03/04 02:26:04;;;;;;;11.93;3.22;;;;;;;4.58;92.54;102504.41;5090428;28;20383;-64
2023/03/04 02:28:29;;;;;;;8.68;1.95;;;;;;;4.58;92.60;102503.56;5086546;28;20127;-64
2023/03/04 02:30:54;;;;;;;15.00;4.38;;;;;;;4.57;92.35;102497.44;5090201;28;20123;-64
2023/03/04 02:33:20;;;;;;;4.05;1.40;;;;;;;4.56;92.15;102495.75;5090182;28;20111;-64
2023/03/04 02:35:45;;;;;;;11.90;1.85;;;;;;;4.52;92.37;102490.81;5088709;28;20027;-64
2023/03/04 02:38:11;;;;;;;6.50;1.75;;;;;;;4.54;92.83;102491.53;5088740;28;20034;-64
2023/03/04 02:40:39;;;;;;;6.82;2.05;;;;;;;4.55;92.81;102491.41;5069248;28;20048;-64
2023/03/04 02:43:05;;;;;;;6.20;2.72;;;;;;;4.53;93.08;102493.34;5089843;28;20446;-64
2023/03/04 02:45:43;;;;;;;8.60;1.50;;;;;;;4.55;93.16;102488.78;5089904;28;20070;-64
2023/03/04 02:48:10;;;;;;;8.70;1.83;;;;;;;4.54;93.48;102496.84;5089799;28;20422;-63
2023/03/04 02:50:42;;;;;;;13.40;1.95;;;;;;;4.54;93.68;102489.75;5069692;28;20106;-64
2023/03/04 02:53:08;;;;;;;9.80;2.75;;;;;;;4.53;94.22;102479.28;5089683;28;20024;-64
2023/03/04 02:55:34;;;;;;;9.65;2.83;;;;;;;4.50;94.16;102477.72;5070243;28;20387;-64
2023/03/04 02:57:59;;;;;;;6.00;2.17;;;;;;;4.53;94.70;102481.91;5070314;28;20032;-63
2023/03/04 03:00:25;;;;;;;5.45;1.40;;;;;;;4.52;94.56;102481.09;5070350;28;20040;-64
2023/03/04 03:02:51;;;;;;;7.07;2.75;;;;;;;4.49;94.98;102475.19;5070230;28;20033;-63
2023/03/04 03:05:17;;;;;;;8.98;1.50;;;;;;;4.48;94.85;102471.72;5070105;28;20039;-64
2023/03/04 03:07:42;;;;;;;7.13;3.20;;;;;;;4.50;94.73;102475.06;5081365;28;20553;-64
2023/03/04 03:10:08;;;;;;;13.20;2.90;;;;;;;4.50;94.76;102475.06;5070242;28;20032;-63
2023/03/04 03:12:34;;;;;;;8.75;1.60;;;;;;;4.50;94.36;102477.72;5069917;28;20040;-64
2023/03/04 03:14:59;;;;;;;8.27;2.00;;;;;;;4.50;94.75;102469.78;5069837;28;20032;-64
2023/03/04 03:17:24;;;;;;;8.20;1.70;;;;;;;4.50;94.43;102469.78;5069852;28;20036;-64
2023/03/04 03:19:50;;;;;;;6.35;1.92;;;;;;;4.49;94.86;102467.28;5070085;28;20536;-64
2023/03/04 03:22:15;;;;;;;5.30;2.10;;;;;;;4.49;95.09;102464.63;5069802;28;20028;-64
2023/03/04 03:24:41;;;;;;;7.38;2.55;;;;;;;4.45;94.82;102464.00;5069761;28;20036;-64
2023/03/04 03:27:06;;;;;;;9.23;2.20;;;;;;;4.49;95.16;102469.91;5069706;28;20033;-64
2023/03/04 03:29:31;;;;;;;6.65;2.33;;;;;;;4.48;95.57;102468.22;5069969;28;20505;-63
2023/03/04 03:31:56;;;;;;;5.43;1.80;;;;;;;4.48;95.48;102460.28;5069787;28;20495;-64
2023/03/04 03:34:22;;;;;;;11.15;1.92;;;;;;;4.47;95.60;102461.25;5069864;28;20036;-64
2023/03/04 03:36:47;;;;;;;11.30;1.92;;;;;;;4.47;96.09;102462.09;5069774;28;20158;-64
2023/03/04 03:39:14;;;;;;;10.73;2.45;;;;;;;4.47;95.85;102453.34;5069818;28;20058;-64
2023/03/04 03:41:40;;;;;;;11.23;3.10;;;;;;;4.46;96.38;102454.31;5069477;28;20040;-64
2023/03/04 03:44:06;;;;;;;7.72;2.67;;;;;;;4.46;96.71;102459.59;5069780;28;20040;-64
2023/03/04 03:46:31;;;;;;;6.60;2.20;;;;;;;4.46;96.84;102454.31;5069407;28;20400;-64
2023/03/04 03:48:56;;;;;;;8.10;1.83;;;;;;;4.46;97.32;102459.59;5069534;28;20040;-64
2023/03/04 03:51:22;;;;;;;5.18;2.13;;;;;;;4.43;97.77;102451.88;5069544;28;20029;-64
2023/03/04 03:53:47;;;;;;;10.25;2.35;;;;;;;4.43;97.60;102450.09;5069581;28;20444;-64
2023/03/04 03:56:12;;;;;;;11.77;2.75;;;;;;;4.42;97.91;102444.91;5069563;28;20108;-64
2023/03/04 03:58:38;;;;;;;27.08;2.70;;;;;;;4.42;97.20;102456.31;5089081;28;20472;-64
2023/03/04 04:01:03;;;;;;;11.18;2.38;;;;;;;4.44;97.64;102453.56;5089895;28;20386;-64
2023/03/04 04:03:29;;;;;;;15.43;4.07;;;;;;;4.44;97.85;102453.56;5093099;28;20383;-64
2023/03/04 04:05:55;;;;;;;12.93;2.20;;;;;;;4.42;96.39;102450.19;5092854;28;20028;-64
2023/03/04 04:08:20;;;;;;;13.88;2.35;;;;;;;4.45;96.31;102460.53;5093096;28;20813;-64
2023/03/04 04:10:46;;;;;;;6.90;2.60;;;;;;;4.44;96.77;102453.56;5092903;28;20024;-64
2023/03/04 04:13:11;;;;;;;7.03;3.03;;;;;;;4.44;96.50;102453.56;5092834;28;20039;-64
2023/03/04 04:15:37;;;;;;;12.70;2.78;;;;;;;4.43;96.19;102454.50;5091389;28;20032;-64
2023/03/04 04:18:03;;;;;;;7.70;2.17;;;;;;;4.43;96.41;102462.44;5092695;28;20123;-64
2023/03/04 04:20:29;;;;;;;7.03;2.03;;;;;;;4.43;94.57;102452.75;5092689;28;20036;-64
2023/03/04 04:22:55;;;;;;;11.38;3.08;;;;;;;4.44;93.99;102451.78;5092517;28;20085;-64
2023/03/04 04:25:20;;;;;;;4.53;1.70;;;;;;;4.44;93.72;102462.34;5092418;28;20030;-64
2023/03/04 04:27:45;;;;;;;8.48;2.58;;;;;;;4.44;93.51;102453.56;5092676;28;20110;-64
2023/03/04 04:30:11;;;;;;;7.07;2.25;;;;;;;4.45;93.10;102457.88;5092545;28;20032;-64
2023/03/04 04:32:36;;;;;;;2.60;1.50;;;;;;;4.46;93.66;102464.88;5092503;28;20045;-64
2023/03/04 04:35:02;;;;;;;7.20;1.77;;;;;;;4.47;92.76;102466.53;5076945;28;20032;-64
2023/03/04 04:37:27;;;;;;;5.30;2.75;;;;;;;4.47;92.33;102458.63;5072839;28;20024;-64
2023/03/04 04:39:54;;;;;;;8.40;1.77;;;;;;;4.46;92.73;102454.31;5073101;28;20036;-64
2023/03/04 04:42:20;;;;;;;5.32;1.73;;;;;;;4.47;91.72;102455.97;5072820;28;20032;-64
2023/03/04 04:44:46;;;;;;;5.35;1.60;;;;;;;4.47;92.12;102461.25;5072837;28;20739;-64
2023/03/04 04:47:11;;;;;;;6.47;1.50;;;;;;;4.47;92.07;102466.53;5072402;28;20139;-64
2023/03/04 04:49:37;;;;;;;6.40;1.50;;;;;;;4.46;92.14;102463.06;5072519;28;20154;-64
2023/03/04 04:52:02;;;;;;;9.32;2.63;;;;;;;4.43;92.21;102457.16;5072517;28;20040;-64
2023/03/04 04:54:28;;;;;;;8.90;2.15;;;;;;;4.45;92.38;102464.00;5072664;28;20032;-64
2023/03/04 04:56:53;;;;;;;4.03;1.70;;;;;;;4.45;92.63;102473.75;5072560;28;20036;-64
2023/03/04 04:59:18;;;;;;;10.32;2.30;;;;;;;4.45;92.14;102469.28;5072384;28;20031;-70
2023/03/04 05:01:44;;;;;;;14.40;2.97;;;;;;;4.45;91.73;102471.94;5072443;28;20039;-71
2023/03/04 05:04:09;;;;;;;5.97;3.00;;;;;;;4.46;90.38;102472.81;5072369;28;20135;-71
2023/03/04 05:06:34;;;;;;;8.70;2.60;;;;;;;4.47;90.03;102469.19;5072065;28;20135;-71
2023/03/04 05:09:01;;;;;;;8.65;2.22;;;;;;;4.46;89.99;102463.06;5072428;28;20040;-72
2023/03/04 05:11:26;;;;;;;9.88;3.22;;;;;;;4.44;89.67;102466.78;5091513;28;20490;-71
2023/03/04 05:13:52;;;;;;;4.55;1.88;;;;;;;4.47;89.60;102467.38;5090983;28;20063;-71
2023/03/04 05:16:18;;;;;;;7.45;1.70;;;;;;;4.47;89.74;102469.19;5091673;28;20036;-70
2023/03/04 05:18:44;;;;;;;4.65;1.50;;;;;;;4.46;89.72;102468.34;5091528;28;20045;-70
2023/03/04 05:21:10;;;;;;;11.63;2.10;;;;;;;4.45;89.96;102471.09;5091568;28;20038;-71
2023/03/04 05:23:38;;;;;;;6.90;1.83;;;;;;;4.47;90.49;102463.91;5091496;28;20383;-71
2023/03/04 05:26:04;;;;;;;6.00;1.77;;;;;;;4.47;90.25;102469.19;5091358;28;20123;-71
2023/03/04 05:28:31;;;;;;;4.45;1.50;;;;;;;4.45;90.01;102464.00;5091389;28;20779;-71
2023/03/04 05:30:56;;;;;;;6.15;1.52;;;;;;;4.46;90.85;102468.34;5091374;28;20106;-70
2023/03/04 05:33:21;;;;;;;11.07;2.25;;;;;;;4.46;91.25;102463.06;5091244;28;20492;-71
2023/03/04 05:35:47;;;;;;;7.65;2.60;;;;;;;4.47;91.59;102466.53;5091361;28;20028;-71
2023/03/04 05:38:15;;;;;;;4.47;1.75;;;;;;;4.44;91.96;102464.13;5091037;28;20032;-71
2023/03/04 05:40:41;;;;;;;8.85;2.17;;;;;;;4.43;91.81;102465.09;5091215;28;20059;-71
2023/03/04 05:43:07;;;;;;;4.78;1.92;;;;;;;4.42;92.65;102468.69;5090980;28;20031;-71
2023/03/04 05:45:33;;;;;;;8.27;2.03;;;;;;;4.42;92.78;102466.06;5090676;28;20043;-71
2023/03/04 05:47:59;;;;;;;6.22;1.80;;;;;;;4.41;93.12;102473.13;5090883;28;20063;-71
2023/03/04 05:50:25;;;;;;;6.63;2.13;;;;;;;4.43;93.18;102475.66;5089936;28;20046;-71
2023/03/04 05:52:51;;;;;;;4.78;1.42;;;;;;;4.42;93.76;102473.97;5090888;28;20032;-70
2023/03/04 05:55:17;;;;;;;2.65;1.25;;;;;;;4.42;94.23;102484.53;5090892;28;20028;-70
2023/03/04 05:57:43;;;;;;;9.20;1.95;;;;;;;4.41;94.56;102485.50;5090975;28;20028;-70
2023/03/04 06:00:12;;;;;;;2.85;1.20;;;;;;;4.39;95.42;102478.53;5090773;28;20034;-70
2023/03/04 06:02:37;;;;;;;10.05;3.75;;;;;;;4.36;96.14;102484.03;5090654;28;20016;-70
2023/03/04 06:05:03;;;;;;;8.00;2.70;;;;;;;4.35;96.47;102479.72;5084570;28;20029;-70
2023/03/04 06:07:29;;;;;;;7.70;1.75;;;;;;;4.26;97.79;102469.84;5071597;28;20084;-70
2023/03/04 06:09:54;;;;;;;6.43;1.80;;;;;;;4.32;98.07;102481.75;5071098;28;20044;-70
2023/03/04 06:12:20;;;;;;;4.63;2.03;;;;;;;4.29;98.31;102474.06;5071123;28;20040;-70
2023/03/04 06:14:45;;;;;;;8.85;1.48;;;;;;;4.29;98.43;102480.19;5071179;28;20040;-70
2023/03/04 06:17:10;;;;;;;8.82;1.50;;;;;;;4.28;99.11;102475.03;5070867;28;20036;-70
2023/03/04 06:19:40;;;;;;;3.88;1.92;;;;;;;4.28;98.86;102485.59;5070848;28;20029;-71
2023/03/04 06:22:06;;;;;;;8.82;1.88;;;;;;;4.27;99.43;102486.53;5070899;28;20036;-70
2023/03/04 06:24:32;;;;;;;9.35;1.50;;;;;;;4.25;99.21;102484.03;5069879;28;20032;-70
2023/03/04 06:26:57;;;;;;;5.70;1.42;;;;;;;4.26;98.98;102488.34;5070644;28;20028;-70
2023/03/04 06:29:23;;;;;;;4.55;1.67;;;;;;;4.23;98.92;102485.09;5071009;28;20037;-70
2023/03/04 06:31:48;;;;;;;9.57;3.42;;;;;;;4.26;99.22;102495.41;5070547;28;20028;-70
2023/03/04 06:34:13;;;;;;;10.27;1.85;;;;;;;4.19;99.43;102476.53;5070545;28;20536;-70
2023/03/04 06:36:39;;;;;;;6.32;1.60;;;;;;;4.23;99.02;102485.09;5070328;28;20625;-70
2023/03/04 06:39:06;;;;;;;8.25;3.30;;;;;;;4.26;98.66;102500.69;5070423;28;20048;-70
2023/03/04 06:41:31;;;;;;;13.63;2.78;;;;;;;4.27;98.43;102494.44;5070425;28;20036;-71
2023/03/04 06:43:57;;;;;;;13.68;2.60;;;;;;;4.28;98.20;102499.63;5070425;28;20388;-71
2023/03/04 06:46:22;;;;;;;5.10;1.92;;;;;;;4.29;98.43;102501.31;5069948;28;20060;-70
2023/03/04 06:48:48;;;;;;;6.45;2.08;;;;;;;4.30;98.52;102502.16;5070384;28;20107;-71
2023/03/04 06:51:14;;;;;;;11.45;1.58;;;;;;;4.28;98.66;102493.50;5070305;28;20058;-70
2023/03/04 06:53:40;;;;;;;11.68;2.05;;;;;;;4.30;98.84;102499.53;5070294;28;20094;-70
2023/03/04 06:56:07;;;;;;;6.40;2.53;;;;;;;4.29;98.69;102497.81;5070115;28;20027;-70
2023/03/04 06:58:32;;;;;;;8.07;3.30;;;;;;;4.31;99.08;102501.19;5089051;28;20028;-70
2023/03/04 07:01:11;;;;;;;6.57;2.88;;;;;;;4.32;99.32;102506.38;5089454;28;20028;-70
2023/03/04 07:03:36;;;;;;;7.47;2.53;;;;;;;4.32;99.59;102500.22;5089502;28;20355;-71
2023/03/04 07:06:02;;;;;;;3.08;1.63;;;;;;;4.29;99.69;102496.03;5089279;28;20044;-70
2023/03/04 07:08:27;;;;;;;6.60;2.25;;;;;;;4.31;99.69;102506.47;5089346;28;20471;-70
2023/03/04 07:10:52;;;;;;;7.95;1.48;;;;;;;4.29;99.92;102503.94;5089092;28;20214;-70
2023/03/04 07:13:18;;;;;;;12.38;3.15;;;;;;;4.31;99.73;102498.56;5087588;28;20055;-70
2023/03/04 07:15:43;;;;;;;10.68;2.17;;;;;;;4.32;100.00;102498.47;5089603;28;20405;-71
2023/03/04 07:18:08;;;;;;;4.50;1.67;;;;;;;4.34;100.00;102503.59;5089248;28;20564;-70
2023/03/04 07:20:34;;;;;;;10.57;2.88;;;;;;;4.36;100.00;102501.69;5089173;28;20032;-70
2023/03/04 07:22:59;;;;;;;11.43;3.80;;;;;;;4.36;100.00;102504.34;5088929;28;20032;-70
2023/03/04 07:25:24;;;;;;;4.13;1.35;;;;;;;4.36;100.00;102513.09;5089255;28;20127;-71
2023/03/04 07:27:50;;;;;;;3.95;2.08;;;;;;;4.37;100.00;102512.13;5089195;28;20027;-70
2023/03/04 07:30:15;;;;;;;4.22;1.58;;;;;;;4.38;100.00;102507.72;5087782;28;20093;-70
2023/03/04 07:32:41;;;;;;;8.35;2.70;;;;;;;4.41;100.00;102514.56;5088934;28;20032;-70
2023/03/04 07:35:06;;;;;;;8.10;2.00;;;;;;;4.42;100.00;102519.72;5088647;28;20025;-71
2023/03/04 07:37:32;;;;;;;7.82;1.98;;;;;;;4.44;100.00;102523.09;5088628;28;20511;-70
2023/03/04 07:39:57;;;;;;;10.10;2.03;;;;;;;4.46;100.00;102515.91;5088674;28;20470;-71
2023/03/04 07:42:22;;;;;;;9.18;3.63;;;;;;;4.50;100.00;102519.97;5088833;28;20536;-70
2023/03/04 07:44:48;;;;;;;5.20;1.70;;;;;;;4.52;100.00;102528.63;5088495;28;20079;-70
2023/03/04 07:47:14;;;;;;;5.57;1.60;;;;;;;4.56;100.00;102530.09;5088889;28;20128;-70
2023/03/04 07:49:40;;;;;;;8.27;3.88;;;;;;;4.60;100.00;102533.34;5088948;28;20495;-70
2023/03/04 07:52:05;;;;;;;6.35;3.30;;;;;;;4.64;100.00;102534.81;5088873;28;20031;-70
2023/03/04 07:54:31;;;;;;;7.57;3.00;;;;;;;4.69;100.00;102530.03;5088649;28;20062;-70
2023/03/04 07:56:56;;;;;;;6.28;2.08;;;;;;;4.74;100.00;102535.81;5088902;28;20020;-70
2023/03/04 07:59:22;;;;;;;13.98;2.22;;;;;;;4.77;100.00;102530.28;5088539;28;20032;-70
2023/03/04 08:01:47;;;;;;;8.45;1.83;;;;;;;4.82;100.00;102532.53;5088944;28;20995;-70
2023/03/04 08:04:12;;;;;;;12.57;2.50;;;;;;;4.85;100.00;102532.34;5088711;28;20035;-71
2023/03/04 08:06:40;;;;;;;21.35;5.18;;;;;;;4.94;100.00;102534.25;5088762;28;20064;-72
2023/03/04 08:09:07;;;;;;;4.95;2.15;;;;;;;5.07;100.00;102536.81;5088564;28;20020;-71
2023/03/04 08:11:35;;;;;;;7.35;3.13;;;;;;;5.16;100.00;102530.81;5088071;28;20071;-69
2023/03/04 08:14:01;;;;;;;4.50;2.08;;;;;;;5.21;100.00;102533.94;5088620;28;20073;-70
2023/03/04 08:16:26;;;;;;;5.30;1.75;;;;;;;5.30;100.00;102535.00;5088808;28;20024;-70
2023/03/04 08:18:55;;;;;;;3.85;1.50;;;;;;;5.42;100.00;102538.47;5077812;28;20032;-68
2023/03/04 08:21:22;;;;;;;7.75;2.03;;;;;;;5.51;100.00;102540.41;5071710;28;20103;-68
2023/03/04 08:23:48;;;;;;;6.10;1.92;;;;;;;5.49;100.00;102539.69;5088284;28;20901;-68
2023/03/04 08:26:19;;;;;;;7.07;1.67;;;;;;;5.46;100.00;102538.13;5088730;28;20087;-68
2023/03/04 08:28:44;;;;;;;5.45;1.73;;;;;;;5.53;100.00;102545.56;5088806;28;20023;-68
2023/03/04 08:31:12;;;;;;;11.98;2.80;;;;;;;5.68;100.00;102539.06;5087214;28;20552;-68
2023/03/04 08:33:37;;;;;;;4.25;1.73;;;;;;;5.77;99.63;102538.34;5088356;28;20446;-68
2023/03/04 08:36:03;;;;;;;8.35;3.20;;;;;;;5.81;99.15;102537.09;5087190;28;20052;-68
2023/03/04 08:38:30;;;;;;;8.65;2.25;;;;;;;5.79;97.89;102540.84;5088322;28;20028;-68
2023/03/04 08:40:56;;;;;;;5.18;3.17;;;;;;;5.83;98.03;102540.47;5088550;28;20027;-68
2023/03/04 08:43:23;;;;;;;4.35;1.35;;;;;;;5.86;97.37;102545.53;5088396;28;20048;-68
2023/03/04 08:45:49;;;;;;;5.78;1.70;;;;;;;5.97;96.56;102547.34;5088344;28;20062;-68
2023/03/04 08:48:15;;;;;;;4.78;1.90;;;;;;;6.00;96.18;102555.06;5089411;28;20181;-67
2023/03/04 08:50:42;;;;;;;3.20;2.47;;;;;;;6.08;95.78;102546.47;5092178;28;20114;-67
2023/03/04 08:53:08;;;;;;;8.65;1.95;;;;;;;6.29;95.06;102546.53;5091692;28;20119;-67
2023/03/04 08:55:33;;;;;;;4.57;1.67;;;;;;;6.41;94.19;102542.84;5092149;28;20119;-67
2023/03/04 08:57:58;;;;;;;10.07;1.75;;;;;;;6.58;93.72;102544.94;5092083;28;20059;-68
2023/03/04 09:00:24;;;;;;;4.13;1.50;;;;;;;6.57;92.87;102548.53;5092178;28;20093;-67
2023/03/04 09:02:49;;;;;;;8.43;2.13;;;;;;;6.58;92.76;102542.28;5092009;28;20071;-67
2023/03/04 09:05:14;;;;;;;6.03;1.38;;;;;;;6.65;93.20;102547.06;5091554;28;20062;-68
2023/03/04 09:07:40;;;;;;;2.85;1.33;;;;;;;6.75;92.37;102540.03;5091962;28;20077;-67
2023/03/04 09:10:06;;;;;;;6.82;1.45;;;;;;;6.83;92.15;102547.31;5091952;28;20043;-67
2023/03/04 09:12:31;;;;;;;11.77;1.73;;;;;;;6.73;91.72;102532.22;5091978;28;20024;-68
2023/03/04 09:14:57;;;;;;;2.72;0.88;;;;;;;6.67;92.66;102537.19;5091969;28;20935;-68
2023/03/04 09:17:22;;;;;;;3.45;1.30;;;;;;;6.61;93.67;102535.06;5091811;28;20032;-67
2023/03/04 09:19:47;;;;;;;7.13;2.60;;;;;;;6.67;93.29;102531.88;5091756;28;20055;-67
2023/03/04 09:22:13;;;;;;;6.50;2.22;;;;;;;6.89;92.33;102534.41;5091502;28;20032;-67
2023/03/04 09:24:38;;;;;;;4.07;1.63;;;;;;;7.01;92.44;102525.38;5091598;28;20027;-67
2023/03/04 09:27:04;;;;;;;3.33;1.20;;;;;;;7.15;91.35;102523.34;5091472;28;20036;-67
2023/03/04 09:29:29;;;;;;;3.08;1.30;;;;;;;7.24;91.11;102523.38;5091437;28;20028;-67
2023/03/04 09:31:55;;;;;;;4.97;1.75;;;;;;;7.25;90.58;102516.25;5091501;28;20040;-69
2023/03/04 09:34:20;;;;;;;2.20;1.33;;;;;;;7.24;90.39;102515.44;5077771;28;20028;-70
2023/03/04 09:36:45;;;;;;;5.30;1.38;;;;;;;7.23;90.69;102513.75;5074863;28;20450;-70
2023/03/04 09:39:11;;;;;;;4.95;1.80;;;;;;;7.28;90.77;102515.16;5075075;28;20024;-70
2023/03/04 09:41:44;;;;;;;7.63;2.45;;;;;;;7.42;89.51;102514.81;5091093;28;20054;-69
2023/03/04 09:44:28;;;;;;;5.75;1.63;;;;;;;7.60;89.25;102512.34;5089826;28;20054;-70
2023/03/04 09:46:57;;;;;;;3.90;1.27;;;;;;;7.63;87.37;102504.94;5091139;28;20372;-70
2023/03/04 09:49:24;;;;;;;7.10;1.58;;;;;;;7.57;87.52;102509.94;5091091;28;20063;-70
2023/03/04 09:51:56;;;;;;;2.88;1.60;;;;;;;7.40;88.32;102514.09;5071772;28;20040;-70
2023/03/04 09:54:46;;;;;;;2.67;2.22;;;;;;;7.24;89.36;102519.91;5084547;28;20035;-70
2023/03/04 09:57:24;;;;;;;2.95;1.83;;;;;;;7.21;90.54;102514.88;5083947;28;20115;-71
2023/03/04 10:00:18;;;;;;;2.78;1.48;;;;;;;7.09;90.32;102518.56;5074616;28;20518;-70
2023/03/04 10:02:49;;;;;;;4.00;1.33;;;;;;;6.88;92.19;102516.78;5090774;28;20023;-70
2023/03/04 10:05:24;;;;;;;6.57;2.00;;;;;;;6.85;92.88;102519.72;5090812;28;20043;-70
2023/03/04 10:07:57;;;;;;;2.83;1.20;;;;;;;6.95;92.75;102515.28;5090755;28;20081;-71
2023/03/04 10:10:32;;;;;;;4.90;1.70;;;;;;;7.09;93.71;102503.50;5090695;28;20050;-71
2023/03/04 10:13:00;;;;;;;4.20;1.42;;;;;;;7.16;92.06;102511.78;5090603;28;20043;-71
2023/03/04 10:15:40;;;;;;;3.50;1.58;;;;;;;7.23;91.56;102510.25;5089377;28;20390;-71
2023/03/04 10:18:41;;;;;;;7.75;1.73;;;;;;;7.33;92.19;102504.97;5090609;28;20111;-70
2023/03/04 10:21:19;;;;;;;9.30;2.05;;;;;;;7.34;91.50;102504.84;5090456;28;20024;-64
2023/03/04 10:23:44;;;;;;;4.75;2.13;;;;;;;7.29;90.59;102498.28;5090461;28;20032;-64
2023/03/04 10:26:16;;;;;;;3.97;1.42;;;;;;;7.24;90.65;102509.28;5090420;28;20085;-64
2023/03/04 10:28:42;;;;;;;3.08;1.27;;;;;;;7.16;91.26;102506.47;5090428;28;20426;-64
2023/03/04 10:31:07;;;;;;;2.92;1.33;;;;;;;7.05;90.89;102510.06;5090523;28;20028;-64
2023/03/04 10:33:36;;;;;;;3.55;1.70;;;;;;;7.02;91.05;102502.34;5090321;28;20605;-64
2023/03/04 10:36:24;;;;;;;2.20;1.67;;;;;;;6.98;90.95;102507.06;5090355;28;20054;-64
2023/03/04 10:38:55;;;;;;;3.05;1.42;;;;;;;6.90;91.73;102509.53;5090359;28;20030;-64
2023/03/04 10:41:24;;;;;;;6.32;2.00;;;;;;;6.83;92.20;102513.69;5070997;28;20024;-63
2023/03/04 10:44:10;;;;;;;2.78;1.40;;;;;;;6.80;93.25;102509.47;5090061;28;20110;-64
2023/03/04 10:46:42;;;;;;;4.15;1.75;;;;;;;6.88;93.61;102502.69;5089840;28;20067;-64
2023/03/04 10:49:09;;;;;;;4.28;2.05;;;;;;;7.12;93.26;102502.38;5089810;28;20487;-64
2023/03/04 10:51:59;;;;;;;2.42;1.55;;;;;;;7.39;92.85;102494.69;5089945;28;20466;-64
2023/03/04 10:54:30;;;;;;;3.40;1.42;;;;;;;7.58;92.07;102477.94;5089984;28;20031;-64
2023/03/04 10:57:26;;;;;;;4.15;1.45;;;;;;;7.85;90.86;102487.91;5089857;28;20154;-64
2023/03/04 10:59:56;;;;;;;5.03;1.70;;;;;;;7.98;90.33;102484.97;5065393;28;20143;-64
2023/03/04 11:02:41;;;;;;;3.95;1.52;;;;;;;8.01;89.50;102484.69;5070443;28;20032;-64
2023/03/04 11:05:25;;;;;;;6.63;2.03;;;;;;;7.87;91.05;102483.31;5070348;28;20399;-64
2023/03/04 11:07:51;;;;;;;3.22;1.80;;;;;;;7.80;90.53;102487.47;5089935;28;20035;-64
2023/03/04 11:10:37;;;;;;;2.30;1.33;;;;;;;7.85;91.55;102482.59;5089370;28;20036;-63
2023/03/04 11:13:08;;;;;;;3.55;1.20;;;;;;;7.93;90.22;102470.44;5089697;28;20094;-63
2023/03/04 11:15:47;;;;;;;3.45;1.60;;;;;;;7.97;89.44;102469.19;5089833;28;20485;-64
2023/03/04 11:18:14;;;;;;;3.30;1.25;;;;;;;7.96;90.32;102470.16;5089475;28;20414;-64
2023/03/04 11:20:42;;;;;;;1.70;1.20;;;;;;;7.85;91.30;102468.47;5089534;28;20028;-64
2023/03/04 11:23:20;;;;;;;5.57;1.38;;;;;;;7.76;92.69;102470.16;5089434;28;20020;-64
2023/03/04 11:25:58;;;;;;;2.15;1.35;;;;;;;7.70;93.57;102460.06;5089341;28;20115;-64
2023/03/04 11:29:01;;;;;;;3.05;1.23;;;;;;;7.75;93.74;102457.84;5088986;28;20028;-64
2023/03/04 11:31:58;;;;;;;2.65;1.20;;;;;;;7.98;93.75;102450.44;5089347;28;20023;-64